createdAt,value
2019-01-16T07:51:59.294Z,15.67
2019-01-16T07:55:05.720Z,16.50
2019-01-16T08:00:31.558Z,18.73
2019-01-16T08:06:17.246Z,20.17
2019-01-16T08:12:03.759Z,19.40
2019-01-16T08:17:49.351Z,19.47
2019-01-16T08:23:14.945Z,17.67
2019-01-16T08:25:56.116Z,17.50
2019-01-16T08:31:45.124Z,17.03
2019-01-16T08:37:41.050Z,14.97
2019-01-16T08:43:07.371Z,14.10
2019-01-16T08:46:10.663Z,12.90
2019-01-16T08:51:36.352Z,11.20
2019-01-16T08:54:29.969Z,11.37
2019-01-16T08:57:11.239Z,10.87
2019-01-16T09:02:56.014Z,9.60
2019-01-16T09:08:21.905Z,9.57
2019-01-16T09:13:48.463Z,11.20
2019-01-16T09:19:08.518Z,10.73
2019-01-16T09:22:11.801Z,10.70
2019-01-16T09:27:57.384Z,11.77
2019-01-16T09:33:23.063Z,12.90
2019-01-16T09:36:25.277Z,12.27
2019-01-16T09:39:06.065Z,13.63
2019-01-16T09:44:31.975Z,13.87
2019-01-16T09:47:34.950Z,11.90
2019-01-16T09:53:17.338Z,12.53
2019-01-16T09:58:43.511Z,12.43
2019-01-16T10:01:49.790Z,13.00
2019-01-16T10:04:38.374Z,12.13
2019-01-16T10:10:19.705Z,13.27
2019-01-16T10:15:46.698Z,13.63
2019-01-16T10:18:27.641Z,13.83
2019-01-16T10:23:48.763Z,14.23
2019-01-16T10:29:25.841Z,14.33
2019-01-16T10:34:51.994Z,14.17
2019-01-16T10:40:41.161Z,11.93
2019-01-16T10:43:32.282Z,12.97
2019-01-16T10:46:31.080Z,11.23
2019-01-16T10:49:26.699Z,11.13
2019-01-16T10:55:12.709Z,10.10
2019-01-16T11:01:00.742Z,9.00
2019-01-16T11:06:47.250Z,8.97
2019-01-16T11:12:29.408Z,8.77
2019-01-16T11:15:10.373Z,8.83
2019-01-16T11:20:36.683Z,7.90
2019-01-16T11:26:23.266Z,8.23
2019-01-16T11:32:12.011Z,8.07
2019-01-16T11:37:58.649Z,8.13
2019-01-16T11:41:01.814Z,7.40
2019-01-16T11:47:10.521Z,7.77
2019-01-16T11:53:13.048Z,6.97
2019-01-16T11:58:38.768Z,6.57
2019-01-16T12:01:28.219Z,6.77
2019-01-16T12:06:54.114Z,6.33
2019-01-16T12:09:42.894Z,6.53
2019-01-16T12:12:23.606Z,6.20
2019-01-16T12:17:49.389Z,5.97
2019-01-16T12:23:09.606Z,5.93
2019-01-16T12:28:35.899Z,5.50
2019-01-16T12:34:45.656Z,5.70
2019-01-16T12:37:26.019Z,5.37
2019-01-16T12:40:20.134Z,6.00
2019-01-16T12:43:00.903Z,5.73
2019-01-16T12:48:47.618Z,5.83
2019-01-16T12:54:13.417Z,5.23
2019-01-16T12:59:39.069Z,5.70
2019-01-16T13:04:59.356Z,5.57
2019-01-16T13:10:25.082Z,5.10
2019-01-16T13:13:05.594Z,5.27
2019-01-16T13:16:05.878Z,4.90
2019-01-16T13:19:06.189Z,4.90
2019-01-16T13:24:54.907Z,4.17
2019-01-16T13:30:42.728Z,4.20
2019-01-16T13:36:10.190Z,4.10
2019-01-16T13:38:51.432Z,3.97
2019-01-16T13:44:40.226Z,3.43
2019-01-16T13:47:20.529Z,4.20
2019-01-16T13:50:24.034Z,4.47
2019-01-16T13:56:10.611Z,3.87
2019-01-16T14:01:36.518Z,3.70
2019-01-16T14:04:39.958Z,4.23
2019-01-16T14:07:40.018Z,4.20
2019-01-16T14:10:20.550Z,3.70
2019-01-16T14:13:00.885Z,4.10
2019-01-16T14:15:42.115Z,3.83
2019-01-16T14:21:53.130Z,3.73
2019-01-16T14:27:12.700Z,3.57
2019-01-16T14:32:39.905Z,3.73
2019-01-16T14:35:21.293Z,3.43
2019-01-16T14:40:46.957Z,3.70
2019-01-16T14:43:27.309Z,3.43
2019-01-16T14:46:07.591Z,4.00
2019-01-16T14:51:59.475Z,3.77
2019-01-16T14:54:47.404Z,3.50
2019-01-16T14:57:50.766Z,4.10
2019-01-16T15:00:45.866Z,4.40
2019-01-16T15:06:11.553Z,3.90
2019-01-16T15:11:37.617Z,3.80
2019-01-16T15:17:04.719Z,3.70
2019-01-16T15:22:51.659Z,4.10
2019-01-16T15:28:17.407Z,3.77
2019-01-16T15:33:37.802Z,3.80
2019-01-16T15:38:58.104Z,3.90
2019-01-16T15:41:38.607Z,5.50
2019-01-16T15:47:25.178Z,5.70
2019-01-16T15:53:13.915Z,4.77
2019-01-16T15:59:02.622Z,4.30
2019-01-16T16:04:28.898Z,3.80
2019-01-16T16:07:30.331Z,3.90
2019-01-16T16:13:19.628Z,3.50
2019-01-16T16:16:11.510Z,3.57
2019-01-16T16:18:52.595Z,3.17
2019-01-16T16:24:18.579Z,4.10
2019-01-16T16:30:04.451Z,3.70
2019-01-16T16:32:45.154Z,3.97
2019-01-16T16:38:05.401Z,3.63
2019-01-16T16:43:31.160Z,4.20
2019-01-16T16:46:20.326Z,4.37
2019-01-16T16:49:01.321Z,4.10
2019-01-16T16:54:27.765Z,4.77
2019-01-16T17:00:32.105Z,4.60
2019-01-16T17:05:58.282Z,4.27
2019-01-16T17:08:39.362Z,4.60
2019-01-16T17:13:59.577Z,4.40
2019-01-16T17:19:19.837Z,4.47
2019-01-16T17:22:19.893Z,4.23
2019-01-16T17:25:23.272Z,4.67
2019-01-16T17:30:49.833Z,5.03
2019-01-16T17:36:29.372Z,4.70
2019-01-16T17:41:55.051Z,5.13
2019-01-16T17:44:57.586Z,5.20
2019-01-16T17:50:36.436Z,5.10
2019-01-16T17:56:02.958Z,5.53
2019-01-16T18:01:52.237Z,5.30
2019-01-16T18:04:33.357Z,5.17
2019-01-16T18:07:34.496Z,4.93
2019-01-16T18:10:14.946Z,5.40
2019-01-16T18:15:57.601Z,5.30
2019-01-16T18:21:23.391Z,5.90
2019-01-16T18:27:10.234Z,6.23
2019-01-16T18:32:30.510Z,6.20
2019-01-16T18:35:28.989Z,6.43
2019-01-16T18:41:21.373Z,6.70
2019-01-16T18:44:21.053Z,5.93
2019-01-16T18:47:16.763Z,7.00
2019-01-16T18:52:43.428Z,6.57
2019-01-16T18:58:10.505Z,6.60
2019-01-16T19:01:03.234Z,6.10
2019-01-16T19:03:43.730Z,6.50
2019-01-16T19:06:24.692Z,7.13
2019-01-16T19:09:20.993Z,6.27
2019-01-16T19:12:24.173Z,6.50
2019-01-16T19:18:10.722Z,6.73
2019-01-16T19:23:30.873Z,6.27
2019-01-16T19:29:16.588Z,7.23
2019-01-16T19:31:57.097Z,6.57
2019-01-16T19:34:48.720Z,7.17
2019-01-16T19:37:51.718Z,6.10
2019-01-16T19:43:37.402Z,6.43
2019-01-16T19:49:04.001Z,7.00
2019-01-16T19:52:09.490Z,7.27
2019-01-16T19:55:12.212Z,6.77
2019-01-16T19:58:15.262Z,6.77
2019-01-16T20:01:07.246Z,7.03
2019-01-16T20:04:02.438Z,6.97
2019-01-16T20:10:10.966Z,6.80
2019-01-16T20:15:36.806Z,6.17
2019-01-16T20:21:03.687Z,7.37
2019-01-16T20:23:44.355Z,7.10
2019-01-16T20:29:24.321Z,7.33
2019-01-16T20:34:50.415Z,7.00
2019-01-16T20:40:37.211Z,6.53
2019-01-16T20:45:57.753Z,6.50
2019-01-16T20:51:18.118Z,7.00
2019-01-16T20:56:43.840Z,6.80
2019-01-16T20:59:24.271Z,7.33
2019-01-16T21:05:10.657Z,7.43
2019-01-16T21:10:36.383Z,8.17
2019-01-16T21:15:56.662Z,7.67
2019-01-16T21:18:53.430Z,7.57
2019-01-16T21:21:56.109Z,7.27
2019-01-16T21:24:43.966Z,7.63
